LFBA/AGF METAR and TAF weather

Enter ICAO airport designator
Station Type Date Time Source
LFBA METAR 2020/11/27 03:30 UTC NOAA

LFBA 270330Z AUTO 11006KT CAVOK 09/09 Q1015


Station Type Date Time Source
LFBA Decoded METAR 2020/11/27 03:30 UTC NOAA

Agen, France (LFBA) 44-11N 000-36E 60M
Nov 26, 2020 - 10:30 PM EST / 2020.11.27 0330 UTC
Wind: from the ESE (110 degrees) at 7 MPH (6 KT):0
Visibility: greater than 7 mile(s):0
Temperature: 48 F (9 C)
Dew Point: 48 F (9 C)
Relative Humidity: 100%
Pressure (altimeter): 29.97 in. Hg (1015 hPa)
ob: LFBA 270330Z AUTO 11006KT CAVOK 09/09 Q1015
cycle: 3

Station Type Date Time Source
LFBA TAF 2014/12/22 20:03 UTC NOAA

TAF
AMD TAF
AMD LFBA 222037Z 2220/2224 12007KT 0400 FG VV///
TEMPO 2220/2224 0100 PROB30
TEMPO 2222/2224 FZFG

Example: see airport list